Time;durP1;ratioP1;P1;durP2;ratioP2;P2;SDS_P1;SDS_P2;PMS_P1;PMS_P2;Temp;Humidity;BMP_temperature;BMP_pressure;BME280_temperature;BME280_humidity;BME280_pressure;Samples;Min_cycle;Max_cycle;Signal;HPM_P1;HPM_P2
2024/01/03 00:01:36;;;;;;;1.00;0.60;;;8.70;99.90;;;;;;5119613;28;20437;-47
2024/01/03 00:04:02;;;;;;;0.70;0.40;;;8.80;99.90;;;;;;5121165;28;20474;-47
2024/01/03 00:06:33;;;;;;;1.67;0.80;;;8.80;99.90;;;;;;5120861;28;20255;-42
2024/01/03 00:08:59;;;;;;;2.03;0.80;;;8.80;1.00;;;;;;5119068;28;20449;-45
2024/01/03 00:11:29;;;;;;;0.90;0.63;;;8.90;1.00;;;;;;5119401;28;20424;-42
2024/01/03 00:14:33;;;;;;;2.37;0.93;;;8.90;1.00;;;;;;5119536;28;20469;-44
2024/01/03 00:17:01;;;;;;;1.20;0.60;;;8.90;1.00;;;;;;5119559;27;20500;-43
2024/01/03 00:19:26;;;;;;;1.40;0.80;;;8.90;99.90;;;;;;5119555;28;20446;-44
2024/01/03 00:21:52;;;;;;;2.83;0.80;;;9.00;99.90;;;;;;5102019;28;20421;-44
2024/01/03 00:24:19;;;;;;;2.17;1.17;;;9.00;99.90;;;;;;5118115;28;20244;-45
2024/01/03 00:26:45;;;;;;;2.80;0.93;;;9.00;99.90;;;;;;5118253;28;20524;-41
2024/01/03 00:29:22;;;;;;;2.07;1.13;;;9.00;99.90;;;;;;5119538;28;20452;-41
2024/01/03 00:31:48;;;;;;;2.70;0.97;;;9.00;99.90;;;;;;5120363;28;20187;-45
2024/01/03 00:34:26;;;;;;;3.10;1.23;;;8.90;99.90;;;;;;5118865;28;20461;-44
2024/01/03 00:36:53;;;;;;;3.70;0.97;;;9.00;99.90;;;;;;5120279;28;20493;-43
2024/01/03 00:39:40;;;;;;;3.07;1.07;;;9.00;99.90;;;;;;5101104;28;20775;-41
2024/01/03 00:42:06;;;;;;;3.20;0.70;;;8.90;99.90;;;;;;5119321;28;20441;-42
2024/01/03 00:44:32;;;;;;;2.23;1.20;;;9.00;57.40;;;;;;5117010;28;20725;-44
2024/01/03 00:46:58;;;;;;;2.30;1.00;;;9.00;62.90;;;;;;5116603;28;20252;-43
2024/01/03 00:49:24;;;;;;;2.10;0.63;;;9.10;44.50;;;;;;5116729;28;20433;-42
2024/01/03 00:51:50;;;;;;;2.43;1.00;;;9.10;99.90;;;;;;5118295;28;20425;-45
2024/01/03 00:54:17;;;;;;;2.50;1.00;;;9.00;1.00;;;;;;5117880;28;20457;-43
2024/01/03 00:56:43;;;;;;;2.70;0.80;;;9.00;1.00;;;;;;5118212;28;20869;-43
2024/01/03 00:59:09;;;;;;;3.27;1.23;;;8.80;99.90;;;;;;5117407;28;20462;-42
2024/01/03 01:01:35;;;;;;;1.80;1.00;;;8.70;99.90;;;;;;5117675;28;20532;-43
2024/01/03 01:04:00;;;;;;;1.90;1.20;;;8.50;99.90;;;;;;5119628;28;20214;-43
2024/01/03 01:06:26;;;;;;;4.20;1.00;;;8.40;99.90;;;;;;5118093;28;20270;-42
2024/01/03 01:08:51;;;;;;;1.83;1.20;;;8.40;99.90;;;;;;5118839;28;20198;-45
2024/01/03 01:11:17;;;;;;;3.00;1.10;;;8.30;99.90;;;;;;5117945;28;20257;-42
2024/01/03 01:13:42;;;;;;;8.60;1.20;;;8.30;99.90;;;;;;5118753;28;20230;-44
2024/01/03 01:16:08;;;;;;;2.13;1.00;;;8.30;99.90;;;;;;5120329;28;20472;-43
2024/01/03 01:18:33;;;;;;;1.60;0.80;;;8.30;99.90;;;;;;5119481;28;20198;-43
2024/01/03 01:20:59;;;;;;;2.17;1.00;;;8.30;99.90;;;;;;5119087;28;20172;-44
2024/01/03 01:23:24;;;;;;;3.00;1.00;;;8.30;99.90;;;;;;5117511;28;20256;-44
2024/01/03 01:25:50;;;;;;;2.47;1.17;;;8.20;99.90;;;;;;5116765;28;20630;-45
2024/01/03 01:28:15;;;;;;;2.60;0.93;;;8.20;99.90;;;;;;5117259;28;20202;-41
2024/01/03 01:30:41;;;;;;;1.83;1.00;;;8.20;99.90;;;;;;5117664;28;20187;-45
2024/01/03 01:33:06;;;;;;;1.50;1.03;;;8.30;99.90;;;;;;5116994;28;20272;-42
2024/01/03 01:35:32;;;;;;;2.70;0.80;;;8.30;99.90;;;;;;5117133;28;20248;-41
2024/01/03 01:37:57;;;;;;;2.03;1.20;;;8.20;99.90;;;;;;5116573;28;20186;-55
2024/01/03 01:40:23;;;;;;;1.50;1.03;;;8.20;99.90;;;;;;5117832;28;20213;-44
2024/01/03 01:42:48;;;;;;;2.40;1.10;;;8.30;99.90;;;;;;5114989;28;20192;-43
2024/01/03 01:45:14;;;;;;;2.53;0.90;;;8.40;99.90;;;;;;5116393;28;20446;-43
2024/01/03 01:47:41;;;;;;;1.90;1.37;;;8.50;99.90;;;;;;5116916;28;20286;-43
2024/01/03 01:50:08;;;;;;;4.13;0.73;;;8.50;99.90;;;;;;5116238;28;20168;-43
2024/01/03 01:52:34;;;;;;;1.50;0.80;;;8.50;99.90;;;;;;5116250;28;20410;-43
2024/01/03 01:54:59;;;;;;;1.17;0.70;;;8.40;99.90;;;;;;5115715;28;20861;-41
2024/01/03 01:57:25;;;;;;;2.67;0.77;;;8.40;99.90;;;;;;5117797;28;20705;-42
2024/01/03 01:59:51;;;;;;;5.20;1.40;;;8.40;99.90;;;;;;5118240;28;20450;-43
2024/01/03 02:02:16;;;;;;;0.80;0.50;;;8.40;99.90;;;;;;5117504;28;20441;-43
2024/01/03 02:04:42;;;;;;;1.20;0.47;;;8.30;99.90;;;;;;5117290;28;20180;-44
2024/01/03 02:07:08;;;;;;;1.90;0.60;;;8.30;99.90;;;;;;5117066;28;20183;-41
2024/01/03 02:09:34;;;;;;;1.37;0.53;;;8.30;99.90;;;;;;5117801;28;20260;-45
2024/01/03 02:11:59;;;;;;;0.80;0.47;;;8.50;1.00;;;;;;5118378;28;20692;-42
2024/01/03 02:14:25;;;;;;;1.00;0.50;;;8.50;99.90;;;;;;5116877;28;20261;-43
2024/01/03 02:16:50;;;;;;;0.93;0.40;;;8.40;99.90;;;;;;5118176;28;20184;-43
2024/01/03 02:19:16;;;;;;;1.00;0.40;;;8.30;99.90;;;;;;5117983;28;20167;-44
2024/01/03 02:21:41;;;;;;;0.70;0.30;;;8.10;99.90;;;;;;5116657;28;20203;-42
2024/01/03 02:24:07;;;;;;;2.50;0.53;;;8.10;99.90;;;;;;5117077;28;20213;-44
2024/01/03 02:26:32;;;;;;;1.83;0.60;;;7.90;99.90;;;;;;5115458;28;20171;-44
2024/01/03 02:28:58;;;;;;;0.70;0.40;;;7.80;99.90;;;;;;5115768;28;20168;-44
2024/01/03 02:31:23;;;;;;;1.27;0.43;;;7.80;1.00;;;;;;5115835;28;20171;-44
2024/01/03 02:33:49;;;;;;;0.80;0.40;;;7.80;1.00;;;;;;5115164;28;20268;-47
2024/01/03 02:36:15;;;;;;;1.77;0.50;;;7.80;1.00;;;;;;5098027;28;20206;-45
2024/01/03 02:38:44;;;;;;;1.27;0.60;;;7.80;1.00;;;;;;5117236;28;20532;-44
2024/01/03 02:41:10;;;;;;;1.83;0.60;;;7.80;1.00;;;;;;5115669;28;20270;-45
2024/01/03 02:43:35;;;;;;;2.03;0.47;;;7.80;1.00;;;;;;5117527;28;20525;-42
2024/01/03 02:46:01;;;;;;;0.90;0.50;;;7.80;1.00;;;;;;5117617;28;20275;-45
2024/01/03 02:48:27;;;;;;;2.73;0.80;;;7.80;1.00;;;;;;5117669;28;20303;-45
2024/01/03 02:50:52;;;;;;;1.10;0.53;;;7.80;1.00;;;;;;5117655;28;20179;-42
2024/01/03 02:53:18;;;;;;;1.93;0.50;;;7.80;1.00;;;;;;5117366;28;20199;-43
2024/01/03 02:55:43;;;;;;;0.90;0.70;;;7.90;1.00;;;;;;5117088;28;20271;-42
2024/01/03 02:58:09;;;;;;;1.20;0.60;;;7.90;1.00;;;;;;5116376;28;20190;-43
2024/01/03 03:00:36;;;;;;;0.87;0.70;;;7.90;1.00;;;;;;5116041;28;20288;-46
2024/01/03 03:03:02;;;;;;;1.30;0.60;;;7.90;1.00;;;;;;5117184;28;20186;-44
2024/01/03 03:05:27;;;;;;;0.90;0.50;;;7.90;1.00;;;;;;5115377;28;20425;-45
2024/01/03 03:07:53;;;;;;;1.00;0.60;;;7.90;1.00;;;;;;5116994;28;20237;-43
2024/01/03 03:10:18;;;;;;;2.40;1.30;;;7.90;1.00;;;;;;5117306;28;20208;-42
2024/01/03 03:12:44;;;;;;;0.90;0.53;;;8.00;1.00;;;;;;5116790;28;20194;-44
2024/01/03 03:15:10;;;;;;;1.03;0.60;;;7.90;1.00;;;;;;5117057;28;20400;-43
2024/01/03 03:17:35;;;;;;;1.70;0.70;;;7.90;1.00;;;;;;5117377;28;20292;-42
2024/01/03 03:20:01;;;;;;;2.37;0.80;;;7.90;1.00;;;;;;5117090;28;20187;-45
2024/01/03 03:22:26;;;;;;;1.13;0.67;;;8.00;1.00;;;;;;5117323;28;20447;-43
2024/01/03 03:24:52;;;;;;;1.70;1.03;;;8.00;1.00;;;;;;5117310;28;20548;-43
2024/01/03 03:27:17;;;;;;;1.60;0.87;;;8.00;1.00;;;;;;5117241;28;20262;-44
2024/01/03 03:29:43;;;;;;;1.20;0.80;;;8.00;1.00;;;;;;5115443;28;20247;-44
2024/01/03 03:32:10;;;;;;;1.73;0.87;;;8.00;1.00;;;;;;5117158;28;20542;-42
2024/01/03 03:34:35;;;;;;;1.17;0.70;;;8.00;1.00;;;;;;5116861;28;20196;-43
2024/01/03 03:37:01;;;;;;;2.50;1.00;;;8.00;1.00;;;;;;5116088;28;20430;-42
2024/01/03 03:39:27;;;;;;;4.00;0.90;;;8.00;1.00;;;;;;5117016;28;20543;-43
2024/01/03 03:41:52;;;;;;;1.90;1.10;;;8.10;1.00;;;;;;5117202;28;20267;-43
2024/01/03 03:44:18;;;;;;;3.80;1.10;;;8.10;1.00;;;;;;5116048;28;20215;-46
2024/01/03 03:46:43;;;;;;;1.80;0.87;;;8.10;1.00;;;;;;5116872;28;20226;-46
2024/01/03 03:49:09;;;;;;;2.60;0.90;;;8.00;1.00;;;;;;5116897;28;20182;-43
2024/01/03 03:51:34;;;;;;;3.93;0.80;;;8.00;1.00;;;;;;5115892;28;20605;-42
2024/01/03 03:54:00;;;;;;;4.80;1.00;;;8.00;1.00;;;;;;5116461;28;20249;-44
2024/01/03 03:56:28;;;;;;;3.10;1.20;;;8.10;99.90;;;;;;5116693;28;20191;-41
2024/01/03 03:58:54;;;;;;;3.03;1.10;;;8.00;99.90;;;;;;5115536;28;20180;-45
2024/01/03 04:01:19;;;;;;;3.50;1.10;;;8.10;99.90;;;;;;5116704;28;20519;-45
2024/01/03 04:03:45;;;;;;;3.43;1.17;;;8.10;99.90;;;;;;5115149;28;20211;-43
2024/01/03 04:06:12;;;;;;;3.13;1.23;;;8.10;99.90;;;;;;5116527;28;20533;-43
2024/01/03 04:08:43;;;;;;;2.13;0.93;;;8.20;67.20;;;;;;5116508;28;20430;-43
2024/01/03 04:11:09;;;;;;;1.37;0.80;;;8.20;9.10;;;;;;5116801;28;20409;-45
2024/01/03 04:13:36;;;;;;;1.37;1.00;;;8.20;1.00;;;;;;5116497;28;20476;-45
2024/01/03 04:16:05;;;;;;;1.30;0.80;;;8.20;9.30;;;;;;5116570;28;20415;-45
2024/01/03 04:18:30;;;;;;;5.83;0.97;;;8.10;19.50;;;;;;5116604;28;20437;-44
2024/01/03 04:20:56;;;;;;;2.23;0.80;;;8.10;1.00;;;;;;5116590;28;20432;-44
2024/01/03 04:23:21;;;;;;;4.60;1.30;;;8.10;1.00;;;;;;5115198;28;20586;-43
2024/01/03 04:25:47;;;;;;;1.73;1.07;;;8.10;1.00;;;;;;5114789;28;20268;-42
2024/01/03 04:28:12;;;;;;;8.17;5.00;;;8.10;1.00;;;;;;5112776;28;20195;-46
2024/01/03 04:30:38;;;;;;;1.97;1.00;;;8.10;1.00;;;;;;5114774;28;20187;-42
2024/01/03 04:33:03;;;;;;;1.23;0.90;;;8.10;1.00;;;;;;5114917;28;20207;-45
2024/01/03 04:35:29;;;;;;;3.17;1.23;;;8.10;1.00;;;;;;5113405;28;20184;-42
2024/01/03 04:37:56;;;;;;;1.70;0.90;;;8.10;1.00;;;;;;5096576;28;20176;-44
2024/01/03 04:40:21;;;;;;;3.80;1.70;;;8.10;1.00;;;;;;5115180;28;20172;-42
2024/01/03 04:42:47;;;;;;;2.33;0.80;;;8.10;1.00;;;;;;5117401;28;20456;-44
2024/01/03 04:45:12;;;;;;;4.63;0.90;;;8.00;1.00;;;;;;5119043;28;20222;-43
2024/01/03 04:47:39;;;;;;;2.40;0.93;;;8.00;1.00;;;;;;5118639;28;20415;-43
2024/01/03 04:50:05;;;;;;;2.97;1.10;;;8.00;1.00;;;;;;5117962;28;20259;-45
2024/01/03 04:52:30;;;;;;;3.37;1.13;;;8.00;1.00;;;;;;5118002;28;20413;-42
2024/01/03 04:54:56;;;;;;;2.80;1.23;;;8.00;1.00;;;;;;5117764;28;20807;-43
2024/01/03 04:57:22;;;;;;;5.03;1.57;;;8.00;99.90;;;;;;5118874;28;20208;-43
2024/01/03 04:59:47;;;;;;;3.67;2.53;;;8.00;99.90;;;;;;5118667;28;20223;-47
2024/01/03 05:02:13;;;;;;;2.20;1.07;;;8.00;1.00;;;;;;5118195;28;20441;-42
2024/01/03 05:04:38;;;;;;;3.70;1.43;;;8.00;1.00;;;;;;5117477;28;20183;-43
2024/01/03 05:07:04;;;;;;;3.53;1.17;;;8.00;99.90;;;;;;5117445;28;20360;-44
2024/01/03 05:09:34;;;;;;;2.47;1.20;;;8.10;99.90;;;;;;5115576;28;20191;-43
2024/01/03 05:11:59;;;;;;;1.83;1.17;;;8.10;99.90;;;;;;5117402;28;20481;-47
2024/01/03 05:14:25;;;;;;;5.23;1.53;;;8.20;1.00;;;;;;5116480;28;20461;-46
2024/01/03 05:16:50;;;;;;;1.53;0.90;;;8.20;1.00;;;;;;5115636;28;20851;-46
2024/01/03 05:19:16;;;;;;;2.90;1.20;;;8.30;1.00;;;;;;5116035;28;20183;-44
2024/01/03 05:21:41;;;;;;;6.43;1.43;;;8.30;1.00;;;;;;5115937;28;20191;-45
2024/01/03 05:24:07;;;;;;;4.57;1.17;;;8.30;1.00;;;;;;5113597;28;20184;-41
2024/01/03 05:26:32;;;;;;;6.30;1.80;;;8.30;1.00;;;;;;5114183;28;20207;-44
2024/01/03 05:28:58;;;;;;;3.13;1.13;;;8.30;1.00;;;;;;5115482;28;20179;-42
2024/01/03 05:31:23;;;;;;;4.20;1.80;;;8.40;1.00;;;;;;5116472;28;20195;-45
2024/01/03 05:33:49;;;;;;;2.03;0.97;;;8.30;1.00;;;;;;5117743;28;20207;-47
2024/01/03 05:36:14;;;;;;;2.80;1.20;;;8.30;1.00;;;;;;5117295;28;20259;-45
2024/01/03 05:38:40;;;;;;;5.30;1.50;;;8.40;1.00;;;;;;5116923;28;20184;-43
2024/01/03 05:41:05;;;;;;;3.17;1.23;;;8.40;1.00;;;;;;5116246;28;20353;-44
2024/01/03 05:43:31;;;;;;;1.83;0.87;;;8.40;1.00;;;;;;5116182;28;20184;-42
2024/01/03 05:45:56;;;;;;;2.80;1.27;;;8.40;1.00;;;;;;5116523;28;20581;-42
2024/01/03 05:48:22;;;;;;;3.13;1.50;;;8.40;1.00;;;;;;5115707;28;20253;-42
2024/01/03 05:50:48;;;;;;;4.47;1.43;;;8.40;1.00;;;;;;5113714;28;20253;-43
2024/01/03 05:53:13;;;;;;;5.60;1.00;;;8.30;1.00;;;;;;5113974;28;20246;-43
2024/01/03 05:55:39;;;;;;;6.80;1.30;;;8.40;1.00;;;;;;5116046;28;20485;-43
2024/01/03 05:58:04;;;;;;;2.90;1.10;;;8.40;1.00;;;;;;5116149;28;20325;-42
2024/01/03 06:00:30;;;;;;;4.80;2.20;;;8.40;1.00;;;;;;5116545;28;20580;-44
2024/01/03 06:02:55;;;;;;;4.37;1.50;;;8.40;99.90;;;;;;5117365;28;20190;-42
2024/01/03 06:05:21;;;;;;;4.17;1.60;;;8.30;99.90;;;;;;5114544;28;20207;-44
2024/01/03 06:07:48;;;;;;;3.27;1.30;;;8.30;1.00;;;;;;5112327;28;20176;-43
2024/01/03 06:10:14;;;;;;;5.10;1.30;;;8.30;1.00;;;;;;5112467;28;20830;-48
2024/01/03 06:12:39;;;;;;;2.83;1.10;;;8.30;1.00;;;;;;5113268;28;20528;-43
2024/01/03 06:15:08;;;;;;;4.80;1.30;;;8.30;1.00;;;;;;5113972;28;20600;-43
2024/01/03 06:17:33;;;;;;;2.40;1.03;;;8.20;1.00;;;;;;5114946;28;20214;-43
2024/01/03 06:19:59;;;;;;;4.17;1.70;;;8.20;1.00;;;;;;5114407;28;20449;-42
2024/01/03 06:22:25;;;;;;;3.87;1.23;;;8.10;1.00;;;;;;5113097;28;20600;-44
2024/01/03 06:24:50;;;;;;;2.33;1.13;;;8.10;1.00;;;;;;5114392;28;20184;-50
2024/01/03 06:27:16;;;;;;;6.30;1.40;;;8.20;1.00;;;;;;5113643;28;20211;-42
2024/01/03 06:29:42;;;;;;;2.30;0.90;;;8.20;1.00;;;;;;5112966;28;20470;-43
2024/01/03 06:32:08;;;;;;;4.57;1.40;;;8.20;1.00;;;;;;5111356;28;20243;-45
2024/01/03 06:34:33;;;;;;;2.90;0.93;;;8.30;1.00;;;;;;5113579;28;20953;-46
2024/01/03 06:37:00;;;;;;;4.90;1.20;;;8.30;99.90;;;;;;5113845;28;20264;-44
2024/01/03 06:39:26;;;;;;;5.10;0.97;;;8.30;99.90;;;;;;5114377;28;20205;-43
2024/01/03 06:41:51;;;;;;;1.73;0.53;;;8.30;99.90;;;;;;5115691;28;20567;-42
2024/01/03 06:44:17;;;;;;;5.47;1.20;;;8.30;99.90;;;;;;5116101;28;20409;-44
2024/01/03 06:46:42;;;;;;;2.30;1.00;;;8.40;99.90;;;;;;5116431;28;20176;-44
2024/01/03 06:49:08;;;;;;;3.10;0.97;;;8.30;99.90;;;;;;5117388;28;20306;-42
2024/01/03 06:51:33;;;;;;;3.63;0.73;;;8.40;99.90;;;;;;5117213;28;20529;-42
2024/01/03 06:53:59;;;;;;;2.80;1.07;;;8.40;43.60;;;;;;5116865;28;20206;-43
2024/01/03 06:56:24;;;;;;;3.77;0.90;;;8.40;10.50;;;;;;5117490;28;20180;-45
2024/01/03 06:58:50;;;;;;;1.83;0.80;;;8.50;1.00;;;;;;5116203;28;20339;-44
2024/01/03 07:01:16;;;;;;;7.57;1.20;;;8.50;1.00;;;;;;5116263;27;20484;-42
2024/01/03 07:03:42;;;;;;;1.97;1.17;;;8.60;1.00;;;;;;5113887;28;20439;-42
2024/01/03 07:06:07;;;;;;;1.47;0.70;;;8.60;99.90;;;;;;5114336;28;20175;-42
2024/01/03 07:08:33;;;;;;;3.40;1.43;;;8.60;99.90;;;;;;5114314;28;20458;-44
2024/01/03 07:10:58;;;;;;;3.93;0.80;;;8.60;99.90;;;;;;5114134;28;20175;-41
2024/01/03 07:13:24;;;;;;;3.17;1.10;;;8.70;99.90;;;;;;5114460;28;20246;-42
2024/01/03 07:15:49;;;;;;;3.20;1.10;;;8.70;99.90;;;;;;5114731;28;20568;-42
2024/01/03 07:18:15;;;;;;;4.37;1.23;;;8.70;99.90;;;;;;5114440;28;20175;-42
2024/01/03 07:20:40;;;;;;;3.70;1.17;;;8.70;99.90;;;;;;5115121;28;20183;-43
2024/01/03 07:23:06;;;;;;;4.03;1.17;;;8.70;99.90;;;;;;5113873;28;20176;-47
2024/01/03 07:25:31;;;;;;;2.90;1.20;;;8.70;99.90;;;;;;5115689;28;20187;-45
2024/01/03 07:27:57;;;;;;;2.10;1.07;;;8.70;99.90;;;;;;5114992;28;20275;-43
2024/01/03 07:30:25;;;;;;;3.03;1.00;;;8.70;1.00;;;;;;5113707;28;20191;-43
2024/01/03 07:32:52;;;;;;;3.63;1.37;;;8.70;1.00;;;;;;5114916;28;20171;-45
2024/01/03 07:35:18;;;;;;;2.63;0.90;;;8.70;1.00;;;;;;5113338;28;20397;-45
2024/01/03 07:37:43;;;;;;;2.83;1.30;;;8.70;1.00;;;;;;5114891;28;20416;-42
2024/01/03 07:40:09;;;;;;;4.87;1.20;;;8.60;1.00;;;;;;5114350;28;20172;-44
2024/01/03 07:42:35;;;;;;;3.77;0.90;;;8.70;20.50;;;;;;5115437;28;20175;-45
2024/01/03 07:45:01;;;;;;;2.13;1.00;;;8.70;34.10;;;;;;5115764;28;20839;-44
2024/01/03 07:47:26;;;;;;;2.70;1.10;;;8.80;67.60;;;;;;5115417;28;20215;-44
2024/01/03 07:49:52;;;;;;;7.33;1.20;;;8.70;99.90;;;;;;5115413;28;20180;-46
2024/01/03 07:52:17;;;;;;;2.37;1.00;;;8.80;99.90;;;;;;5116903;28;20194;-45
2024/01/03 07:54:43;;;;;;;2.70;1.10;;;8.80;99.90;;;;;;5115382;28;20230;-43
2024/01/03 07:57:08;;;;;;;2.30;1.30;;;8.80;99.90;;;;;;5113908;28;20176;-42
2024/01/03 07:59:34;;;;;;;4.73;1.00;;;8.90;52.20;;;;;;5113405;28;20239;-44
2024/01/03 08:01:59;;;;;;;4.53;1.40;;;8.90;1.00;;;;;;5101124;28;20244;-44
2024/01/03 08:04:25;;;;;;;2.87;1.00;;;9.00;1.00;;;;;;5094871;28;20181;-43
2024/01/03 08:06:51;;;;;;;2.60;0.90;;;9.00;1.00;;;;;;5094013;28;20345;-42
2024/01/03 08:09:16;;;;;;;4.20;1.17;;;9.10;1.00;;;;;;5094396;28;20978;-47
2024/01/03 08:11:43;;;;;;;3.50;1.30;;;9.10;1.00;;;;;;5094873;28;20242;-43
2024/01/03 08:14:09;;;;;;;3.30;1.10;;;9.10;1.00;;;;;;5111158;28;20607;-42
2024/01/03 08:16:34;;;;;;;3.43;1.20;;;9.30;1.00;;;;;;5117770;28;20422;-43
2024/01/03 08:19:00;;;;;;;3.80;0.90;;;9.40;99.90;;;;;;5119162;28;20275;-44
2024/01/03 08:21:26;;;;;;;4.40;1.27;;;9.40;99.90;;;;;;5119300;28;20259;-43
2024/01/03 08:23:51;;;;;;;2.20;1.17;;;9.50;99.90;;;;;;5119154;28;20183;-47
2024/01/03 08:26:19;;;;;;;3.30;1.00;;;9.40;99.90;;;;;;5117226;28;20184;-43
2024/01/03 08:28:45;;;;;;;7.10;2.07;;;9.40;1.00;;;;;;5119121;28;20242;-43
2024/01/03 08:31:15;;;;;;;2.10;1.00;;;9.40;1.00;;;;;;5119567;28;20764;-44
2024/01/03 08:33:41;;;;;;;2.13;1.13;;;9.60;99.90;;;;;;5118679;28;20473;-41
2024/01/03 08:36:11;;;;;;;1.73;1.00;;;9.60;99.90;;;;;;5118141;28;20868;-45
2024/01/03 08:38:36;;;;;;;2.60;1.13;;;9.60;1.00;;;;;;5117114;28;20195;-45
2024/01/03 08:41:02;;;;;;;2.00;1.00;;;9.50;26.90;;;;;;5116395;28;20405;-43
2024/01/03 08:43:27;;;;;;;3.23;1.57;;;9.40;99.90;;;;;;5118228;28;20186;-46
2024/01/03 08:45:53;;;;;;;3.07;1.10;;;9.40;99.90;;;;;;5118610;28;20214;-44
2024/01/03 08:48:18;;;;;;;2.60;0.80;;;9.30;99.90;;;;;;5110161;28;20187;-43
2024/01/03 08:50:44;;;;;;;2.47;1.30;;;9.20;99.90;;;;;;5094996;28;20201;-44
2024/01/03 08:53:10;;;;;;;4.40;1.80;;;9.20;99.90;;;;;;5096868;28;20295;-43
2024/01/03 08:55:35;;;;;;;2.27;1.07;;;9.20;99.90;;;;;;5095929;28;20180;-43
2024/01/03 08:58:02;;;;;;;2.10;1.00;;;9.20;99.90;;;;;;5095768;28;20269;-44
2024/01/03 09:00:27;;;;;;;3.90;1.07;;;9.10;99.90;;;;;;5095530;28;20673;-46
2024/01/03 09:02:57;;;;;;;3.90;1.13;;;9.10;1.00;;;;;;5095505;28;20521;-42
2024/01/03 09:05:22;;;;;;;1.90;0.70;;;9.00;1.00;;;;;;5093196;28;20558;-46
2024/01/03 09:07:48;;;;;;;2.60;1.10;;;9.10;1.00;;;;;;5093734;28;20456;-46
2024/01/03 09:10:14;;;;;;;2.40;0.70;;;9.30;1.00;;;;;;5095069;28;20169;-47
2024/01/03 09:12:40;;;;;;;2.87;0.90;;;9.70;99.90;;;;;;5096399;28;20518;-46
2024/01/03 09:15:06;;;;;;;4.13;1.70;;;10.10;1.00;;;;;;5096743;28;20906;-43
2024/01/03 09:17:32;;;;;;;3.57;1.00;;;10.30;99.90;;;;;;5097899;28;20179;-43
2024/01/03 09:19:57;;;;;;;3.60;0.90;;;10.20;99.90;;;;;;5097033;28;20411;-44
2024/01/03 09:22:23;;;;;;;5.17;1.40;;;10.10;99.90;;;;;;5098001;28;20179;-44
2024/01/03 09:24:48;;;;;;;2.90;1.13;;;10.00;99.90;;;;;;5098148;28;20203;-42
2024/01/03 09:27:14;;;;;;;2.90;1.30;;;10.20;99.90;;;;;;5095892;28;20177;-43
2024/01/03 09:29:41;;;;;;;1.50;0.87;;;10.90;1.00;;;;;;5095936;28;20265;-43
2024/01/03 09:32:07;;;;;;;2.63;1.10;;;11.70;1.00;;;;;;5093560;28;20255;-44
2024/01/03 09:34:39;;;;;;;2.50;0.90;;;11.60;1.00;;;;;;5096650;28;20465;-41
2024/01/03 09:37:05;;;;;;;1.57;0.80;;;11.20;99.90;;;;;;5097967;28;20422;-42
2024/01/03 09:39:30;;;;;;;3.43;0.97;;;10.50;1.00;;;;;;5097027;28;20600;-41
2024/01/03 09:41:56;;;;;;;4.13;1.10;;;10.10;1.00;;;;;;5095687;28;20426;-45
2024/01/03 09:44:22;;;;;;;2.70;1.00;;;9.80;99.90;;;;;;5094910;28;20173;-43
2024/01/03 09:46:49;;;;;;;3.33;1.50;;;9.70;1.00;;;;;;5095379;28;20586;-43
2024/01/03 09:49:16;;;;;;;3.07;1.13;;;9.60;1.00;;;;;;5094051;28;20416;-43
2024/01/03 09:51:41;;;;;;;3.33;1.07;;;9.50;1.00;;;;;;5094035;28;20533;-46
2024/01/03 09:54:08;;;;;;;4.40;1.23;;;9.50;99.90;;;;;;5094247;28;20624;-45
2024/01/03 09:56:38;;;;;;;4.07;1.13;;;9.30;99.90;;;;;;5094624;28;20172;-45
2024/01/03 09:59:04;;;;;;;2.53;1.23;;;9.20;1.00;;;;;;5094436;28;20493;-44
2024/01/03 10:01:30;;;;;;;6.73;2.20;;;9.20;1.00;;;;;;5095669;28;20450;-45
2024/01/03 10:03:55;;;;;;;2.30;1.10;;;9.50;1.00;;;;;;5094962;28;20455;-42
2024/01/03 10:06:21;;;;;;;3.40;0.90;;;9.80;99.90;;;;;;5094875;28;20272;-41
2024/01/03 10:09:02;;;;;;;3.57;1.40;;;9.90;99.90;;;;;;5095443;28;20570;-44
2024/01/03 10:11:28;;;;;;;2.30;1.13;;;9.90;99.90;;;;;;5094811;28;20178;-43
2024/01/03 10:13:54;;;;;;;4.50;1.20;;;9.60;99.90;;;;;;5096274;28;20458;-40
2024/01/03 10:16:26;;;;;;;2.50;1.27;;;9.50;1.00;;;;;;5097086;28;20541;-42
2024/01/03 10:19:17;;;;;;;3.50;1.00;;;9.40;1.00;;;;;;5095209;28;20479;-43
2024/01/03 10:21:50;;;;;;;3.67;1.20;;;9.30;1.00;;;;;;5096414;28;20422;-45
2024/01/03 10:24:17;;;;;;;1.80;0.90;;;9.40;1.00;;;;;;5097654;28;20882;-44
2024/01/03 10:26:42;;;;;;;2.63;1.30;;;9.40;1.00;;;;;;5097238;28;20918;-41
2024/01/03 10:29:11;;;;;;;5.13;1.73;;;9.30;1.00;;;;;;5096944;28;20432;-46
2024/01/03 10:31:37;;;;;;;1.30;0.83;;;9.30;1.00;;;;;;5095961;28;20196;-40
2024/01/03 10:34:06;;;;;;;4.57;0.90;;;9.30;1.00;;;;;;5096665;28;20513;-43
2024/01/03 10:36:34;;;;;;;2.10;0.93;;;9.30;1.00;;;;;;5096709;28;20422;-43
2024/01/03 10:39:01;;;;;;;3.83;1.50;;;9.40;1.00;;;;;;5096042;28;20430;-42
2024/01/03 10:41:27;;;;;;;3.33;0.70;;;9.40;1.00;;;;;;5095200;28;20422;-41
2024/01/03 10:43:53;;;;;;;2.23;1.73;;;9.80;99.90;;;;;;5095291;28;20540;-41
2024/01/03 10:46:19;;;;;;;1.53;0.90;;;10.30;1.00;;;;;;5091261;28;20613;-41
2024/01/03 10:48:44;;;;;;;2.73;0.97;;;10.50;99.90;;;;;;5089993;28;20454;-45
2024/01/03 10:51:13;;;;;;;3.10;1.30;;;10.50;99.90;;;;;;5090400;28;20251;-43
2024/01/03 10:53:42;;;;;;;5.20;0.90;;;10.50;99.90;;;;;;5091378;28;20255;-45
2024/01/03 10:56:09;;;;;;;2.40;1.00;;;10.60;1.00;;;;;;5092902;28;20394;-45
2024/01/03 10:58:37;;;;;;;2.27;0.80;;;11.10;99.90;;;;;;5092707;28;20418;-41
2024/01/03 11:01:28;;;;;;;1.90;0.90;;;11.30;1.00;;;;;;5091403;28;20441;-41
2024/01/03 11:04:18;;;;;;;2.03;1.00;;;11.20;17.60;;;;;;5093172;28;20438;-40
2024/01/03 11:07:12;;;;;;;3.13;0.80;;;10.90;99.90;;;;;;5095057;28;20435;-42
2024/01/03 11:09:38;;;;;;;2.67;0.87;;;10.80;1.00;;;;;;5094769;28;20868;-43
2024/01/03 11:12:08;;;;;;;2.00;0.70;;;10.70;1.00;;;;;;5095908;28;20503;-44
2024/01/03 11:14:34;;;;;;;2.93;1.07;;;10.60;1.00;;;;;;5092830;28;20204;-42
2024/01/03 11:17:00;;;;;;;1.97;1.10;;;10.60;99.90;;;;;;5091577;28;20494;-42
2024/01/03 11:19:37;;;;;;;2.70;1.10;;;10.50;99.90;;;;;;5093540;28;20444;-43
2024/01/03 11:22:03;;;;;;;1.33;0.70;;;10.60;1.00;;;;;;5091323;28;20860;-45
2024/01/03 11:24:28;;;;;;;1.80;0.90;;;11.30;99.90;;;;;;5093229;28;20445;-44
2024/01/03 11:26:55;;;;;;;2.30;0.90;;;12.50;99.90;;;;;;5092884;28;20730;-44
2024/01/03 11:29:35;;;;;;;2.70;0.63;;;13.70;99.90;;;;;;5095406;28;20464;-43
2024/01/03 11:32:04;;;;;;;1.20;0.73;;;14.00;1.00;;;;;;5092979;28;20430;-43
2024/01/03 11:34:40;;;;;;;2.37;0.80;;;13.30;1.00;;;;;;5096886;28;20501;-46
2024/01/03 11:37:12;;;;;;;1.80;0.60;;;13.70;1.00;;;;;;5098124;28;20434;-45
2024/01/03 11:39:42;;;;;;;2.00;0.80;;;13.30;1.00;;;;;;5097491;28;20450;-43
2024/01/03 11:42:08;;;;;;;2.33;0.90;;;13.20;1.00;;;;;;5097273;28;20571;-45
2024/01/03 11:44:34;;;;;;;3.90;0.80;;;12.90;99.90;;;;;;5097222;28;20434;-43
2024/01/03 11:47:01;;;;;;;2.60;1.00;;;12.50;99.90;;;;;;5097551;28;20700;-45
2024/01/03 11:49:27;;;;;;;1.30;0.80;;;13.10;30.90;;;;;;5098434;28;20177;-43
2024/01/03 11:52:01;;;;;;;2.83;0.97;;;13.20;1.00;;;;;;5101029;28;20502;-44
2024/01/03 11:54:33;;;;;;;3.07;1.03;;;12.90;1.00;;;;;;5099822;28;20477;-46
2024/01/03 11:57:06;;;;;;;1.93;0.70;;;12.30;99.90;;;;;;5102176;28;20406;-44
2024/01/03 11:59:33;;;;;;;3.10;1.13;;;11.80;1.00;;;;;;5099339;28;20500;-43
2024/01/03 12:01:59;;;;;;;3.30;1.03;;;11.50;1.00;;;;;;5097978;28;20439;-46
2024/01/03 12:04:25;;;;;;;3.40;1.10;;;11.40;99.90;;;;;;5095829;28;20457;-46
2024/01/03 12:06:58;;;;;;;2.70;1.03;;;11.80;99.90;;;;;;5097765;28;20430;-44
2024/01/03 12:09:29;;;;;;;3.20;0.90;;;12.20;99.90;;;;;;5100135;28;20463;-44
2024/01/03 12:11:54;;;;;;;3.00;1.30;;;11.80;1.00;;;;;;5097162;28;20406;-42
2024/01/03 12:14:20;;;;;;;2.13;1.37;;;11.60;1.00;;;;;;5098059;28;20472;-41
2024/01/03 12:16:49;;;;;;;3.70;1.37;;;11.00;1.00;;;;;;5099169;28;20735;-42
2024/01/03 12:19:21;;;;;;;2.20;0.90;;;10.90;1.00;;;;;;5099136;28;20214;-42
2024/01/03 12:21:54;;;;;;;2.93;0.97;;;10.80;1.00;;;;;;5100675;28;20426;-45
2024/01/03 12:24:19;;;;;;;1.30;0.80;;;10.70;1.00;;;;;;5099943;28;20454;-42
2024/01/03 12:26:48;;;;;;;3.93;0.80;;;10.80;1.00;;;;;;5099418;28;20418;-42
2024/01/03 12:29:14;;;;;;;1.97;0.87;;;10.70;99.90;;;;;;5098834;28;20176;-44
2024/01/03 12:31:40;;;;;;;2.50;0.90;;;10.40;1.00;;;;;;5097481;28;20559;-44
2024/01/03 12:34:06;;;;;;;2.13;1.00;;;10.30;99.90;;;;;;5096721;28;20204;-44
2024/01/03 12:36:32;;;;;;;2.93;1.07;;;10.30;99.90;;;;;;5096498;28;20173;-43
2024/01/03 12:39:01;;;;;;;1.07;0.60;;;10.30;1.00;;;;;;5097130;28;20414;-42
2024/01/03 12:41:26;;;;;;;1.17;0.70;;;11.00;1.00;;;;;;5095808;28;20758;-45
2024/01/03 12:43:52;;;;;;;1.60;0.70;;;12.10;1.00;;;;;;5093898;28;20434;-43
2024/01/03 12:46:18;;;;;;;2.67;0.70;;;13.00;1.00;;;;;;5095928;28;20187;-42
2024/01/03 12:48:44;;;;;;;1.83;0.70;;;13.80;1.00;;;;;;5078965;28;20178;-46
2024/01/03 12:51:10;;;;;;;2.60;0.80;;;14.20;1.00;;;;;;5096498;28;20427;-43
2024/01/03 12:53:36;;;;;;;2.37;0.97;;;14.60;99.90;;;;;;5097942;28;20234;-42
2024/01/03 12:56:02;;;;;;;1.70;0.60;;;14.80;99.90;;;;;;5080895;28;20469;-44
2024/01/03 12:58:28;;;;;;;1.63;0.60;;;14.90;99.90;;;;;;5098845;28;20768;-46